Time;durP1;ratioP1;P1;durP2;ratioP2;P2;SDS_P1;SDS_P2;PMS_P1;PMS_P2;Temp;Humidity;BMP_temperature;BMP_pressure;BME280_temperature;BME280_humidity;BME280_pressure;Samples;Min_cycle;Max_cycle;Signal;HPM_P1;HPM_P2
2022/01/04 00:01:51;;;;;;;1.20;1.00;;;11.90;98.00;;;;;;5054441;28;20824;-70
2022/01/04 00:04:18;;;;;;;1.20;0.90;;;11.90;98.00;;;;;;5054520;28;20489;-70
2022/01/04 00:06:46;;;;;;;1.20;1.10;;;11.90;98.00;;;;;;5054490;28;20477;-70
2022/01/04 00:09:14;;;;;;;1.20;0.90;;;11.90;98.00;;;;;;5054273;28;21087;-70
2022/01/04 00:11:58;;;;;;;1.20;0.93;;;11.90;98.00;;;;;;5054387;28;20456;-70
2022/01/04 00:14:25;;;;;;;1.20;0.90;;;11.90;98.00;;;;;;5054400;28;20727;-70
2022/01/04 00:16:55;;;;;;;1.20;0.90;;;11.90;98.00;;;;;;5054375;28;20461;-70
2022/01/04 00:19:23;;;;;;;1.20;1.00;;;11.90;98.00;;;;;;5054101;28;20456;-70
2022/01/04 00:21:53;;;;;;;1.20;0.90;;;11.90;98.00;;;;;;5054136;28;21221;-70
2022/01/04 00:24:20;;;;;;;1.20;0.93;;;11.90;98.00;;;;;;5053634;28;20461;-70
2022/01/04 00:26:47;;;;;;;1.20;1.00;;;11.90;98.00;;;;;;5054112;28;20522;-70
2022/01/04 00:29:14;;;;;;;1.20;1.00;;;11.90;98.00;;;;;;5054164;28;20528;-70
2022/01/04 00:31:41;;;;;;;1.20;1.00;;;11.90;98.00;;;;;;5054112;28;20494;-70
2022/01/04 00:34:08;;;;;;;1.20;1.00;;;11.90;98.00;;;;;;5054027;28;20577;-70
2022/01/04 00:36:36;;;;;;;1.20;1.00;;;11.90;98.00;;;;;;5053951;28;20537;-70
2022/01/04 00:39:04;;;;;;;1.20;0.90;;;11.90;98.00;;;;;;5053961;28;20467;-70
2022/01/04 00:41:31;;;;;;;1.20;1.00;;;11.90;98.00;;;;;;5053885;28;20498;-70
2022/01/04 00:43:58;;;;;;;1.20;1.00;;;11.80;98.00;;;;;;5054134;28;20964;-70
2022/01/04 00:46:26;;;;;;;1.33;1.00;;;11.80;98.00;;;;;;5053920;28;20537;-70
2022/01/04 00:49:13;;;;;;;1.20;1.00;;;11.80;98.00;;;;;;5052634;28;20508;-70
2022/01/04 00:51:41;;;;;;;1.20;0.90;;;11.80;98.00;;;;;;5054066;28;21068;-70
2022/01/04 00:54:13;;;;;;;1.20;0.97;;;11.80;98.00;;;;;;5053569;28;20518;-70
2022/01/04 00:56:41;;;;;;;1.20;1.03;;;11.80;98.00;;;;;;5053593;28;20478;-70
2022/01/04 00:59:09;;;;;;;1.20;1.10;;;11.70;98.00;;;;;;5053287;28;20549;-70
2022/01/04 01:01:37;;;;;;;1.20;1.10;;;11.80;98.00;;;;;;5052232;28;20501;-70
2022/01/04 01:04:06;;;;;;;1.20;1.10;;;11.70;98.00;;;;;;5053446;28;20874;-70
2022/01/04 01:06:33;;;;;;;1.20;1.00;;;11.70;98.00;;;;;;5053210;28;20473;-70
2022/01/04 01:09:01;;;;;;;1.20;1.10;;;11.70;98.00;;;;;;5053138;28;20545;-70
2022/01/04 01:11:29;;;;;;;1.20;1.00;;;11.70;98.00;;;;;;5052067;28;20500;-70
2022/01/04 01:13:56;;;;;;;1.20;1.00;;;11.70;98.00;;;;;;5053020;28;20458;-70
2022/01/04 01:16:23;;;;;;;1.20;0.90;;;11.80;98.00;;;;;;5053220;28;20453;-70
2022/01/04 01:18:50;;;;;;;1.73;1.20;;;11.70;98.00;;;;;;5053080;28;20463;-70
2022/01/04 01:21:18;;;;;;;1.20;0.90;;;11.80;98.00;;;;;;5053020;28;20541;-70
2022/01/04 01:23:45;;;;;;;1.20;1.00;;;11.70;98.00;;;;;;5052891;28;20549;-70
2022/01/04 01:26:12;;;;;;;1.20;0.90;;;11.70;98.00;;;;;;5052939;28;20462;-70
2022/01/04 01:28:41;;;;;;;1.20;1.00;;;11.70;98.00;;;;;;5051526;28;20490;-70
2022/01/04 01:31:11;;;;;;;1.20;1.00;;;11.70;98.00;;;;;;5052995;28;20494;-70
2022/01/04 01:33:39;;;;;;;1.20;0.97;;;11.70;98.00;;;;;;5051457;28;20482;-70
2022/01/04 01:36:07;;;;;;;1.93;1.00;;;11.70;98.00;;;;;;5051960;28;20577;-70
2022/01/04 01:38:34;;;;;;;1.20;1.00;;;11.70;98.00;;;;;;5052483;28;20493;-70
2022/01/04 01:41:02;;;;;;;1.20;1.00;;;11.70;98.00;;;;;;5052786;28;20465;-70
2022/01/04 01:43:29;;;;;;;1.20;0.90;;;11.70;98.00;;;;;;5052669;28;20487;-70
2022/01/04 01:45:58;;;;;;;1.20;1.00;;;11.70;98.00;;;;;;5052635;28;21034;-70
2022/01/04 01:48:25;;;;;;;2.37;1.13;;;11.70;98.00;;;;;;5052808;28;20540;-70
2022/01/04 01:50:52;;;;;;;1.20;1.00;;;11.70;98.00;;;;;;5052531;28;20544;-70
2022/01/04 01:53:20;;;;;;;1.40;1.10;;;11.70;98.00;;;;;;5052518;28;20492;-70
2022/01/04 01:55:47;;;;;;;1.20;1.00;;;11.70;98.00;;;;;;5051152;28;20520;-70
2022/01/04 01:58:14;;;;;;;1.20;1.00;;;11.70;98.00;;;;;;5052457;28;20464;-70
2022/01/04 02:00:42;;;;;;;1.20;0.90;;;11.70;98.00;;;;;;5052548;28;20777;-70
2022/01/04 02:03:10;;;;;;;1.20;1.00;;;11.70;98.00;;;;;;5052402;28;20489;-70
2022/01/04 02:05:37;;;;;;;1.20;1.00;;;11.70;98.00;;;;;;5052464;28;20483;-70
2022/01/04 02:08:05;;;;;;;1.20;1.07;;;11.70;98.00;;;;;;5052631;28;20461;-70
2022/01/04 02:10:35;;;;;;;3.40;1.10;;;11.70;98.00;;;;;;5052203;28;20450;-70
2022/01/04 02:13:02;;;;;;;1.30;1.10;;;11.70;98.00;;;;;;5052296;28;20854;-70
2022/01/04 02:15:32;;;;;;;1.33;1.10;;;11.70;98.00;;;;;;5052322;28;21004;-70
2022/01/04 02:18:00;;;;;;;1.20;1.00;;;11.70;98.00;;;;;;5052028;28;20518;-70
2022/01/04 02:20:29;;;;;;;1.20;1.00;;;11.70;98.00;;;;;;5051977;28;20485;-70
2022/01/04 02:22:56;;;;;;;1.20;0.90;;;11.70;98.00;;;;;;5051744;28;20483;-70
2022/01/04 02:25:23;;;;;;;1.20;1.00;;;11.70;98.00;;;;;;5051894;28;20479;-70
2022/01/04 02:27:52;;;;;;;2.90;1.30;;;11.70;98.00;;;;;;5052079;28;20862;-70
2022/01/04 02:30:22;;;;;;;2.00;1.10;;;11.70;98.00;;;;;;5051904;28;20497;-70
2022/01/04 02:32:49;;;;;;;1.20;1.20;;;11.70;98.00;;;;;;5034244;28;20544;-70
2022/01/04 02:35:19;;;;;;;1.20;1.10;;;11.70;98.00;;;;;;5051789;28;20485;-70
2022/01/04 02:37:47;;;;;;;1.20;1.00;;;11.70;98.00;;;;;;5051507;28;20596;-70
2022/01/04 02:40:15;;;;;;;1.20;1.13;;;11.80;98.00;;;;;;5050887;28;20535;-70
2022/01/04 02:42:43;;;;;;;1.20;0.90;;;11.70;98.00;;;;;;5050828;28;20948;-70
2022/01/04 02:45:10;;;;;;;1.20;1.00;;;11.80;98.00;;;;;;5051034;28;20507;-70
2022/01/04 02:47:38;;;;;;;2.07;1.13;;;11.80;98.00;;;;;;5051261;28;20546;-70
2022/01/04 02:50:07;;;;;;;1.20;1.00;;;11.80;98.00;;;;;;5051610;28;20504;-70
2022/01/04 02:52:35;;;;;;;1.20;1.00;;;11.80;98.00;;;;;;5051351;28;20500;-70
2022/01/04 02:55:05;;;;;;;1.20;1.00;;;11.80;98.00;;;;;;5051521;28;20517;-70
2022/01/04 02:57:34;;;;;;;1.20;1.03;;;11.90;98.00;;;;;;5051468;28;20482;-70
2022/01/04 03:00:01;;;;;;;6.20;1.20;;;11.90;98.00;;;;;;5051603;28;20481;-70
2022/01/04 03:02:29;;;;;;;1.20;1.00;;;11.90;98.00;;;;;;5051837;28;20458;-70
2022/01/04 03:04:56;;;;;;;1.30;1.20;;;11.90;98.00;;;;;;5051617;28;20532;-70
2022/01/04 03:07:23;;;;;;;1.20;1.10;;;11.90;98.00;;;;;;5051539;28;20844;-70
2022/01/04 03:09:50;;;;;;;1.50;1.10;;;11.90;98.00;;;;;;5051419;28;20521;-70
2022/01/04 03:12:18;;;;;;;4.17;1.30;;;11.90;98.00;;;;;;5051408;28;20933;-70
2022/01/04 03:14:46;;;;;;;1.20;1.00;;;11.90;98.00;;;;;;5051245;28;20528;-70
2022/01/04 03:17:13;;;;;;;1.20;1.00;;;11.90;98.00;;;;;;5051415;28;20545;-70
2022/01/04 03:19:40;;;;;;;1.60;1.20;;;11.90;98.00;;;;;;5051368;28;21097;-70
2022/01/04 03:22:07;;;;;;;1.60;1.50;;;12.00;98.00;;;;;;5051489;28;20582;-70
2022/01/04 03:24:35;;;;;;;1.20;1.00;;;12.00;98.00;;;;;;5051060;28;20490;-70
2022/01/04 03:27:02;;;;;;;1.20;1.10;;;12.00;98.00;;;;;;5049794;28;20458;-70
2022/01/04 03:29:31;;;;;;;1.20;1.10;;;12.00;98.00;;;;;;5051250;28;20496;-70
2022/01/04 03:31:59;;;;;;;1.20;1.00;;;12.10;98.00;;;;;;5048448;28;21075;-70
2022/01/04 03:34:27;;;;;;;1.30;1.00;;;12.10;98.00;;;;;;5051377;28;20497;-70
2022/01/04 03:36:54;;;;;;;1.23;1.10;;;12.10;98.00;;;;;;5051199;28;20511;-70
2022/01/04 03:39:21;;;;;;;1.23;1.03;;;12.10;98.00;;;;;;5051092;28;20494;-70
2022/01/04 03:41:50;;;;;;;3.10;1.33;;;12.10;98.00;;;;;;5051460;28;20545;-70
2022/01/04 03:44:19;;;;;;;1.30;1.20;;;12.10;98.00;;;;;;5051360;28;20851;-70
2022/01/04 03:46:49;;;;;;;1.37;1.20;;;12.10;98.00;;;;;;5051677;28;20456;-70
2022/01/04 03:49:16;;;;;;;1.20;1.07;;;12.00;98.00;;;;;;5051397;28;20502;-70
2022/01/04 03:51:43;;;;;;;1.20;1.00;;;12.00;98.00;;;;;;5050988;28;20949;-70
2022/01/04 03:54:10;;;;;;;1.20;0.90;;;12.00;98.00;;;;;;5051060;28;20491;-70
2022/01/04 03:56:55;;;;;;;1.20;1.00;;;11.90;98.00;;;;;;5050994;28;20925;-70
2022/01/04 03:59:23;;;;;;;1.20;1.20;;;11.90;98.00;;;;;;5051043;28;20481;-70
2022/01/04 04:01:57;;;;;;;1.20;1.00;;;11.90;98.00;;;;;;5054534;28;20594;-70
2022/01/04 04:04:25;;;;;;;1.20;1.00;;;11.90;98.00;;;;;;5053633;28;20481;-70
2022/01/04 04:06:52;;;;;;;1.20;1.00;;;11.80;98.00;;;;;;5054368;28;20554;-70
2022/01/04 04:09:19;;;;;;;1.53;1.17;;;11.80;98.00;;;;;;5054372;28;20503;-70
2022/01/04 04:11:46;;;;;;;1.20;1.00;;;11.80;98.00;;;;;;5054395;28;20976;-70
2022/01/04 04:14:13;;;;;;;1.20;1.10;;;11.70;98.00;;;;;;5054401;28;20493;-70
2022/01/04 04:16:40;;;;;;;1.20;1.03;;;11.70;98.00;;;;;;5054090;28;20578;-70
2022/01/04 04:19:08;;;;;;;1.20;1.00;;;11.70;98.00;;;;;;5054182;28;20489;-70
2022/01/04 04:21:35;;;;;;;1.20;1.00;;;11.70;98.00;;;;;;5054351;28;20462;-70
2022/01/04 04:24:02;;;;;;;1.20;1.07;;;11.70;98.00;;;;;;5054033;28;20518;-70
2022/01/04 04:26:29;;;;;;;1.20;1.00;;;11.80;98.00;;;;;;5054048;28;20541;-70
2022/01/04 04:28:56;;;;;;;1.43;1.10;;;11.80;98.00;;;;;;5054042;28;20494;-70
2022/01/04 04:31:23;;;;;;;1.20;1.00;;;11.80;98.00;;;;;;5054074;28;20506;-70
2022/01/04 04:33:50;;;;;;;1.20;1.10;;;11.80;98.00;;;;;;5053937;28;20501;-70
2022/01/04 04:36:19;;;;;;;1.30;1.13;;;11.80;98.00;;;;;;5053871;28;20579;-70
2022/01/04 04:38:46;;;;;;;1.53;1.30;;;11.80;98.00;;;;;;5053602;28;20492;-69
2022/01/04 04:41:13;;;;;;;1.20;1.10;;;11.80;98.00;;;;;;5053897;28;20488;-70
2022/01/04 04:43:40;;;;;;;1.20;1.00;;;11.80;98.00;;;;;;5053774;28;20563;-70
2022/01/04 04:46:08;;;;;;;1.20;1.10;;;11.70;98.00;;;;;;5053852;28;20538;-70
2022/01/04 04:48:35;;;;;;;1.20;1.00;;;11.80;98.00;;;;;;5053858;28;20846;-70
2022/01/04 04:51:03;;;;;;;1.20;0.90;;;11.70;98.00;;;;;;5053900;28;20933;-70
2022/01/04 04:53:31;;;;;;;1.20;1.00;;;11.70;98.00;;;;;;5052493;28;20546;-70
2022/01/04 04:55:58;;;;;;;1.20;1.00;;;11.60;98.00;;;;;;5053719;28;20575;-70
2022/01/04 04:58:25;;;;;;;1.20;1.00;;;11.60;98.00;;;;;;5053785;28;20530;-70
2022/01/04 05:00:52;;;;;;;1.20;1.00;;;11.60;98.00;;;;;;5053725;28;20500;-70
2022/01/04 05:03:19;;;;;;;1.20;0.90;;;11.60;98.00;;;;;;5053751;28;20486;-70
2022/01/04 05:05:46;;;;;;;1.20;1.00;;;11.50;98.00;;;;;;5053563;28;20549;-70
2022/01/04 05:08:13;;;;;;;1.43;1.30;;;11.50;98.00;;;;;;5053815;28;20509;-70
2022/01/04 05:10:42;;;;;;;1.30;1.10;;;11.40;98.00;;;;;;5053601;28;20539;-70
2022/01/04 05:13:09;;;;;;;1.20;1.00;;;11.40;98.00;;;;;;5053480;28;20462;-70
2022/01/04 05:15:36;;;;;;;1.20;1.00;;;11.40;98.00;;;;;;5053068;28;21104;-70
2022/01/04 05:18:03;;;;;;;1.20;1.20;;;11.40;98.00;;;;;;5052984;28;20494;-70
2022/01/04 05:20:31;;;;;;;1.20;0.97;;;11.40;98.00;;;;;;5053212;28;20493;-70
2022/01/04 05:22:58;;;;;;;1.20;1.00;;;11.40;98.00;;;;;;5052922;28;20485;-70
2022/01/04 05:25:25;;;;;;;1.73;1.10;;;11.30;98.00;;;;;;5052905;28;20458;-70
2022/01/04 05:27:53;;;;;;;1.97;1.60;;;11.30;98.00;;;;;;5052900;28;20501;-70
2022/01/04 05:30:20;;;;;;;1.20;1.00;;;11.30;98.00;;;;;;5052984;28;20461;-70
2022/01/04 05:32:47;;;;;;;1.30;1.10;;;11.40;98.00;;;;;;5051473;28;20548;-70
2022/01/04 05:35:14;;;;;;;1.20;1.20;;;11.30;98.00;;;;;;5052622;28;20495;-70
2022/01/04 05:37:41;;;;;;;1.20;1.00;;;11.30;98.00;;;;;;5052885;28;20493;-70
2022/01/04 05:40:09;;;;;;;1.20;1.00;;;11.30;98.00;;;;;;5052618;28;20504;-70
2022/01/04 05:42:37;;;;;;;2.33;1.10;;;11.30;98.00;;;;;;5052619;28;20545;-70
2022/01/04 05:45:08;;;;;;;1.20;1.10;;;11.30;98.00;;;;;;5052573;28;20887;-70
2022/01/04 05:47:35;;;;;;;1.40;1.20;;;11.40;98.00;;;;;;5052572;28;20862;-70
2022/01/04 05:50:02;;;;;;;1.17;1.00;;;11.30;98.00;;;;;;5052445;28;20459;-70
2022/01/04 05:52:29;;;;;;;1.20;1.00;;;11.30;98.00;;;;;;5052484;28;20506;-70
2022/01/04 05:54:56;;;;;;;1.20;1.00;;;11.30;98.00;;;;;;5052512;28;20482;-70
2022/01/04 05:57:23;;;;;;;1.20;1.10;;;11.20;98.00;;;;;;5052594;28;20515;-70
2022/01/04 05:59:50;;;;;;;1.17;1.00;;;11.20;98.00;;;;;;5052314;28;20472;-70
2022/01/04 06:02:19;;;;;;;1.20;1.00;;;11.20;98.00;;;;;;5052423;28;20533;-70
2022/01/04 06:04:46;;;;;;;3.73;1.40;;;11.20;98.00;;;;;;5052347;28;20974;-70
2022/01/04 06:07:13;;;;;;;1.10;1.00;;;11.20;98.00;;;;;;5051166;28;20528;-70
2022/01/04 06:09:43;;;;;;;1.20;1.00;;;11.20;98.00;;;;;;5052104;28;21181;-70
2022/01/04 06:14:59;;;;;;;1.20;1.00;;;11.10;98.00;;;;;;5052244;28;20436;-70
2022/01/04 06:17:29;;;;;;;1.20;1.00;;;11.20;98.00;;;;;;5052219;28;20490;-70
2022/01/04 06:19:58;;;;;;;1.30;1.10;;;11.10;98.00;;;;;;5051968;28;20959;-70
2022/01/04 06:22:26;;;;;;;1.13;1.00;;;11.10;98.00;;;;;;5051840;28;20449;-70
2022/01/04 06:24:54;;;;;;;1.10;1.00;;;11.20;98.00;;;;;;5051004;28;20458;-70
2022/01/04 06:27:22;;;;;;;1.10;1.00;;;11.10;98.00;;;;;;5051804;28;20481;-70
2022/01/04 06:29:49;;;;;;;1.10;1.00;;;11.20;98.00;;;;;;5052081;28;20493;-70
2022/01/04 06:32:20;;;;;;;1.10;0.90;;;11.20;98.00;;;;;;5052036;28;20514;-70
2022/01/04 06:34:48;;;;;;;1.10;1.00;;;11.20;98.00;;;;;;5051886;28;20454;-70
2022/01/04 06:37:16;;;;;;;1.10;0.90;;;11.20;98.00;;;;;;5051830;28;20522;-70
2022/01/04 06:39:44;;;;;;;1.10;1.00;;;11.20;98.00;;;;;;5051098;28;20461;-70
2022/01/04 06:42:12;;;;;;;1.10;1.00;;;11.20;98.00;;;;;;5051902;28;20499;-70
2022/01/04 06:44:41;;;;;;;1.10;1.10;;;11.20;98.00;;;;;;5051643;28;20450;-70
2022/01/04 06:47:08;;;;;;;1.20;1.10;;;11.30;98.00;;;;;;5051458;28;20466;-70
2022/01/04 06:49:37;;;;;;;1.10;1.00;;;11.30;98.00;;;;;;5051577;28;20519;-70
2022/01/04 06:52:06;;;;;;;1.10;1.00;;;11.30;98.00;;;;;;5051591;28;20455;-69
2022/01/04 06:54:33;;;;;;;1.10;0.97;;;11.40;98.00;;;;;;5051437;28;20458;-70
2022/01/04 06:57:00;;;;;;;1.10;1.00;;;11.40;98.00;;;;;;5051402;28;20489;-70
2022/01/04 06:59:27;;;;;;;1.10;1.00;;;11.40;98.00;;;;;;5051431;28;20490;-70
2022/01/04 07:01:54;;;;;;;1.10;1.00;;;11.40;98.00;;;;;;5051557;28;20462;-70
2022/01/04 07:04:21;;;;;;;1.90;1.27;;;11.50;98.00;;;;;;5050162;28;20497;-70
2022/01/04 07:06:48;;;;;;;1.10;1.00;;;11.50;98.00;;;;;;5051485;28;20545;-70
2022/01/04 07:09:17;;;;;;;1.10;1.00;;;11.60;98.00;;;;;;5051470;28;20958;-70
2022/01/04 07:11:44;;;;;;;1.10;1.00;;;11.60;98.00;;;;;;5051714;28;20546;-70
2022/01/04 07:14:11;;;;;;;1.10;1.00;;;11.60;98.00;;;;;;5051530;28;20508;-70
2022/01/04 07:16:38;;;;;;;1.10;1.00;;;11.60;98.00;;;;;;5051214;28;20527;-70
2022/01/04 07:19:05;;;;;;;1.10;0.90;;;11.70;98.00;;;;;;5051503;28;20982;-70
2022/01/04 07:21:34;;;;;;;1.10;1.00;;;11.70;98.00;;;;;;5051452;28;20494;-70
2022/01/04 07:24:01;;;;;;;1.10;1.10;;;11.80;98.00;;;;;;5051335;28;20525;-70
2022/01/04 07:26:29;;;;;;;1.10;1.00;;;11.80;98.00;;;;;;5051417;28;20485;-69
2022/01/04 07:28:57;;;;;;;1.10;1.00;;;11.80;98.00;;;;;;5051287;28;20446;-70
2022/01/04 07:31:24;;;;;;;1.10;0.90;;;11.80;98.00;;;;;;5051494;28;20510;-70
2022/01/04 07:33:51;;;;;;;1.10;0.90;;;11.80;98.00;;;;;;5051263;28;20549;-70
2022/01/04 07:36:18;;;;;;;1.90;1.13;;;11.80;98.00;;;;;;5054515;28;20513;-70
2022/01/04 07:38:45;;;;;;;1.10;1.00;;;11.90;98.00;;;;;;5054878;28;20470;-70
2022/01/04 07:41:13;;;;;;;1.20;1.00;;;11.90;98.00;;;;;;5055090;28;20485;-71
2022/01/04 07:43:41;;;;;;;1.10;1.00;;;11.90;98.00;;;;;;5054940;28;20515;-71
2022/01/04 07:46:08;;;;;;;1.10;1.00;;;11.90;98.00;;;;;;5055081;28;20493;-71
2022/01/04 07:48:35;;;;;;;1.17;1.00;;;11.90;98.00;;;;;;5054892;28;20515;-71
2022/01/04 07:51:03;;;;;;;1.10;0.90;;;12.00;98.00;;;;;;5055147;28;20605;-71
2022/01/04 07:53:30;;;;;;;1.10;0.90;;;12.00;98.00;;;;;;5055145;28;20455;-72
2022/01/04 07:55:58;;;;;;;1.20;1.10;;;12.00;98.00;;;;;;5054563;28;20944;-71
2022/01/04 07:58:25;;;;;;;1.30;1.00;;;12.10;98.00;;;;;;5054539;28;20497;-71
2022/01/04 08:00:55;;;;;;;1.10;0.90;;;12.00;98.00;;;;;;5054346;28;20453;-71
2022/01/04 08:03:22;;;;;;;1.10;1.00;;;12.10;98.00;;;;;;5054052;28;20502;-70
2022/01/04 08:05:50;;;;;;;1.30;1.10;;;12.10;98.00;;;;;;5054639;28;20455;-70
2022/01/04 08:08:17;;;;;;;1.20;1.00;;;12.10;98.00;;;;;;5054459;28;20459;-71
2022/01/04 08:10:46;;;;;;;1.13;1.00;;;12.10;98.00;;;;;;5047873;28;20987;-70
2022/01/04 08:13:13;;;;;;;1.20;1.00;;;12.10;98.00;;;;;;5013976;28;20456;-71
2022/01/04 08:15:40;;;;;;;1.20;1.00;;;12.10;98.00;;;;;;5013928;28;20537;-71
2022/01/04 08:18:10;;;;;;;1.17;1.00;;;12.20;98.00;;;;;;5013741;28;20532;-71
2022/01/04 08:20:38;;;;;;;1.20;1.10;;;12.20;98.00;;;;;;5014547;28;20491;-71
2022/01/04 08:23:05;;;;;;;1.20;1.03;;;12.20;98.00;;;;;;5014382;28;20501;-71
2022/01/04 08:25:33;;;;;;;1.20;1.00;;;12.30;98.00;;;;;;5015190;28;20511;-71
2022/01/04 08:28:00;;;;;;;1.20;1.00;;;12.20;98.00;;;;;;5026802;28;20516;-72
2022/01/04 08:30:27;;;;;;;1.20;1.00;;;12.30;98.00;;;;;;5045623;28;20543;-72
2022/01/04 08:32:54;;;;;;;1.20;1.00;;;12.30;98.00;;;;;;5026627;28;20542;-72
2022/01/04 08:35:23;;;;;;;1.20;1.00;;;12.30;98.00;;;;;;5049206;28;20634;-70
2022/01/04 08:37:50;;;;;;;1.20;1.10;;;12.30;98.00;;;;;;5041163;28;20587;-71
2022/01/04 08:40:18;;;;;;;1.20;1.00;;;12.30;98.00;;;;;;5042109;28;20494;-73
2022/01/04 08:42:45;;;;;;;1.17;1.00;;;12.30;98.00;;;;;;5039257;28;20549;-70
2022/01/04 08:45:12;;;;;;;1.20;1.10;;;12.30;98.00;;;;;;5042732;28;20464;-70
2022/01/04 08:47:40;;;;;;;1.40;1.20;;;12.30;98.00;;;;;;5034117;28;20554;-70
2022/01/04 08:50:14;;;;;;;1.20;1.20;;;12.30;98.00;;;;;;5031371;28;21007;-69
2022/01/04 08:52:49;;;;;;;1.20;1.00;;;12.30;98.00;;;;;;5032951;28;20445;-71
2022/01/04 08:55:16;;;;;;;1.10;1.00;;;12.40;98.00;;;;;;5032445;28;20468;-71
2022/01/04 08:57:43;;;;;;;1.20;1.00;;;12.40;98.00;;;;;;5033724;28;20533;-71
2022/01/04 09:00:12;;;;;;;1.20;1.00;;;12.40;98.00;;;;;;5033078;28;20560;-70
2022/01/04 09:02:39;;;;;;;1.10;1.00;;;12.40;98.00;;;;;;5033689;28;20496;-70
2022/01/04 09:05:06;;;;;;;1.33;1.00;;;12.50;98.00;;;;;;5033653;28;21201;-70
2022/01/04 09:07:34;;;;;;;1.20;0.90;;;12.50;98.00;;;;;;5033784;28;20454;-70
2022/01/04 09:10:03;;;;;;;1.83;1.10;;;12.50;98.00;;;;;;5033978;28;20489;-70
2022/01/04 09:12:40;;;;;;;1.20;0.90;;;12.50;98.00;;;;;;5033860;28;20464;-70
2022/01/04 09:15:29;;;;;;;1.10;0.90;;;12.50;98.00;;;;;;5033492;28;20459;-70
2022/01/04 09:20:42;;;;;;;1.20;1.00;;;12.70;98.00;;;;;;5033396;28;20446;-70
2022/01/04 09:23:09;;;;;;;1.20;1.00;;;12.70;98.00;;;;;;5033157;28;21017;-70
2022/01/04 09:25:38;;;;;;;1.20;1.07;;;12.80;98.00;;;;;;5033092;28;20460;-70
2022/01/04 09:28:05;;;;;;;1.20;1.10;;;12.80;98.00;;;;;;5032715;28;20515;-70
2022/01/04 09:30:33;;;;;;;1.20;1.00;;;12.80;98.00;;;;;;5032926;28;20539;-70
2022/01/04 09:33:01;;;;;;;1.30;1.10;;;12.80;98.00;;;;;;5032882;28;20888;-70
2022/01/04 09:35:29;;;;;;;1.20;1.00;;;12.80;98.00;;;;;;5032920;28;20466;-70
2022/01/04 09:37:56;;;;;;;1.20;1.00;;;12.80;98.00;;;;;;5032839;28;20487;-70
2022/01/04 09:40:23;;;;;;;1.20;1.00;;;12.90;98.00;;;;;;5032492;28;20491;-70
2022/01/04 09:42:51;;;;;;;1.20;1.00;;;12.90;98.00;;;;;;5032803;28;20500;-70
2022/01/04 09:45:18;;;;;;;1.20;1.00;;;12.90;98.00;;;;;;5032686;28;20456;-70
2022/01/04 09:47:46;;;;;;;1.20;1.00;;;12.90;98.00;;;;;;5031437;28;20457;-70
2022/01/04 09:50:13;;;;;;;1.20;1.00;;;12.80;98.00;;;;;;5032626;28;20495;-70
2022/01/04 09:52:43;;;;;;;1.33;1.27;;;12.80;98.00;;;;;;5032647;28;20518;-70
2022/01/04 09:55:13;;;;;;;2.13;1.70;;;12.80;98.00;;;;;;5032452;28;20461;-70
2022/01/04 09:57:40;;;;;;;1.30;1.00;;;13.00;98.00;;;;;;5031419;28;20982;-70
2022/01/04 10:00:12;;;;;;;2.57;1.47;;;13.50;98.00;;;;;;5032663;28;20461;-70
2022/01/04 10:02:39;;;;;;;1.30;1.07;;;13.90;98.00;;;;;;5032650;28;20480;-69
2022/01/04 10:05:16;;;;;;;1.30;1.10;;;14.10;98.00;;;;;;5032693;28;20515;-69
2022/01/04 10:07:43;;;;;;;1.53;1.40;;;14.50;98.00;;;;;;5032628;28;20795;-68
2022/01/04 10:10:11;;;;;;;1.30;1.20;;;14.70;98.00;;;;;;5032400;28;20878;-69
2022/01/04 10:12:55;;;;;;;1.20;1.00;;;14.60;98.00;;;;;;5032492;28;20460;-69
2022/01/04 10:15:39;;;;;;;1.20;0.93;;;14.70;98.00;;;;;;5032489;28;21131;-69
2022/01/04 10:18:21;;;;;;;1.47;1.10;;;14.70;98.00;;;;;;5032422;28;20524;-69
2022/01/04 10:20:52;;;;;;;1.40;1.10;;;14.80;98.00;;;;;;5032293;28;20458;-69
2022/01/04 10:23:22;;;;;;;1.20;1.10;;;14.70;98.00;;;;;;5032112;28;20461;-69
2022/01/04 10:25:50;;;;;;;1.20;1.00;;;14.40;98.00;;;;;;5032441;28;20456;-69
2022/01/04 10:28:30;;;;;;;1.20;1.00;;;13.90;98.00;;;;;;5032140;28;20458;-69
2022/01/04 10:31:01;;;;;;;1.20;1.03;;;13.70;98.00;;;;;;5031982;28;20520;-68
2022/01/04 10:33:31;;;;;;;1.20;1.00;;;13.40;98.00;;;;;;5032226;28;20460;-68
2022/01/04 10:35:59;;;;;;;1.20;1.00;;;13.40;98.00;;;;;;5032180;28;20535;-70
2022/01/04 10:38:29;;;;;;;1.30;1.10;;;13.30;98.00;;;;;;5030350;28;20521;-70
2022/01/04 10:41:00;;;;;;;1.30;1.13;;;13.30;98.00;;;;;;5030440;28;20497;-69
2022/01/04 10:43:29;;;;;;;1.20;0.97;;;13.30;98.00;;;;;;5031905;28;20461;-70
2022/01/04 10:45:57;;;;;;;1.20;1.10;;;13.20;98.00;;;;;;5026201;28;20497;-69
2022/01/04 10:48:28;;;;;;;1.83;1.30;;;13.20;98.00;;;;;;5038620;28;20485;-70
2022/01/04 10:50:56;;;;;;;1.20;1.00;;;13.20;98.00;;;;;;5036216;28;20555;-70
2022/01/04 10:53:28;;;;;;;1.20;1.00;;;13.20;98.00;;;;;;5039590;28;20486;-70
2022/01/04 10:55:56;;;;;;;1.20;1.00;;;13.30;98.00;;;;;;5031046;28;20492;-71
2022/01/04 10:58:30;;;;;;;1.67;1.10;;;13.20;98.00;;;;;;5039287;28;20529;-71
2022/01/04 11:01:00;;;;;;;3.23;2.43;;;13.20;98.00;;;;;;5044136;28;20465;-70
2022/01/04 11:03:31;;;;;;;1.73;1.27;;;13.30;98.00;;;;;;5033319;28;20493;-70
2022/01/04 11:06:01;;;;;;;1.20;0.97;;;13.30;98.00;;;;;;5038506;28;20463;-70
2022/01/04 11:08:29;;;;;;;1.20;1.10;;;13.30;98.00;;;;;;5031720;28;20493;-70
2022/01/04 11:10:56;;;;;;;1.20;1.00;;;13.30;98.00;;;;;;5049467;28;20467;-70
2022/01/04 11:13:24;;;;;;;1.20;1.00;;;13.30;98.00;;;;;;5035670;28;20487;-70
2022/01/04 11:15:51;;;;;;;1.20;1.10;;;13.20;98.00;;;;;;5043407;28;20515;-70
2022/01/04 11:18:19;;;;;;;1.20;1.00;;;13.20;98.00;;;;;;5041251;28;21074;-70
2022/01/04 11:20:48;;;;;;;1.20;1.00;;;13.20;98.00;;;;;;5051421;28;20476;-70
2022/01/04 11:23:16;;;;;;;1.20;1.00;;;13.20;98.00;;;;;;5044505;28;20500;-68
2022/01/04 11:25:45;;;;;;;1.20;1.00;;;13.20;98.00;;;;;;5035935;28;20464;-69
2022/01/04 11:28:16;;;;;;;1.53;1.40;;;13.20;98.00;;;;;;5050912;28;20522;-70
2022/01/04 11:30:55;;;;;;;1.20;1.00;;;13.20;98.00;;;;;;5044919;28;20483;-71
2022/01/04 11:33:27;;;;;;;1.20;1.00;;;13.20;98.00;;;;;;5034837;28;20460;-69
2022/01/04 11:35:56;;;;;;;1.30;1.10;;;13.20;98.00;;;;;;5041495;28;20822;-69
2022/01/04 11:38:35;;;;;;;1.53;1.10;;;13.30;98.00;;;;;;5042599;28;20934;-69
2022/01/04 11:41:03;;;;;;;1.20;1.00;;;13.30;98.00;;;;;;5034139;28;20546;-69
2022/01/04 11:43:33;;;;;;;1.20;1.10;;;13.30;98.00;;;;;;5051244;28;20928;-70
2022/01/04 11:46:01;;;;;;;1.20;1.00;;;13.30;98.00;;;;;;5042730;28;20460;-70
2022/01/04 11:48:31;;;;;;;1.20;1.00;;;13.40;98.00;;;;;;5050768;28;20458;-70
2022/01/04 11:51:03;;;;;;;1.20;1.00;;;13.40;98.00;;;;;;5040637;28;20501;-70
2022/01/04 11:53:32;;;;;;;2.10;1.17;;;13.40;98.00;;;;;;5048478;28;21020;-70
2022/01/04 11:56:03;;;;;;;1.20;1.00;;;13.50;98.00;;;;;;5050673;28;20514;-69
2022/01/04 11:58:51;;;;;;;1.20;1.00;;;13.50;98.00;;;;;;5032733;28;20499;-69
2022/01/04 12:01:27;;;;;;;1.50;1.30;;;13.50;98.00;;;;;;5030997;28;20468;-69
2022/01/04 12:03:57;;;;;;;1.20;1.00;;;13.50;98.00;;;;;;5046835;28;20464;-70
2022/01/04 12:06:42;;;;;;;1.20;1.00;;;13.40;98.00;;;;;;5037840;28;20457;-69
2022/01/04 12:09:26;;;;;;;1.40;1.30;;;13.40;98.00;;;;;;5034986;28;20532;-69
2022/01/04 12:11:53;;;;;;;1.50;1.20;;;13.40;98.00;;;;;;5035006;28;20455;-69
2022/01/04 12:14:25;;;;;;;1.20;1.20;;;13.30;98.00;;;;;;5033998;28;21025;-69
2022/01/04 12:17:03;;;;;;;1.20;1.00;;;13.30;98.00;;;;;;5041416;28;20455;-69
2022/01/04 12:19:48;;;;;;;1.30;1.10;;;13.30;98.00;;;;;;5033787;28;20568;-70
2022/01/04 12:22:30;;;;;;;1.50;1.20;;;13.20;98.00;;;;;;5034917;28;20463;-69
2022/01/04 12:25:05;;;;;;;2.70;1.80;;;13.20;98.00;;;;;;5037276;28;21249;-69
2022/01/04 12:27:32;;;;;;;1.60;1.50;;;13.20;98.00;;;;;;5033491;28;20489;-69
2022/01/04 12:30:25;;;;;;;1.20;1.20;;;13.20;98.00;;;;;;5046361;28;21195;-69
2022/01/04 12:32:53;;;;;;;1.30;1.30;;;13.20;98.00;;;;;;5050007;28;20976;-69
2022/01/04 12:35:20;;;;;;;1.20;1.10;;;13.10;98.00;;;;;;5033445;28;20452;-69
2022/01/04 12:37:48;;;;;;;1.30;1.20;;;13.20;98.00;;;;;;5041116;28;20522;-69
2022/01/04 12:40:15;;;;;;;2.07;1.10;;;13.20;98.00;;;;;;5049518;28;20515;-69
2022/01/04 12:42:43;;;;;;;1.30;1.20;;;13.10;98.00;;;;;;5050703;28;20480;-69
2022/01/04 12:45:13;;;;;;;1.20;1.00;;;13.10;98.00;;;;;;5049059;28;20529;-69
2022/01/04 12:47:49;;;;;;;1.20;1.00;;;13.10;98.00;;;;;;5033084;28;20466;-69
2022/01/04 12:50:16;;;;;;;1.20;1.10;;;13.10;98.00;;;;;;5040115;28;20459;-69
2022/01/04 12:52:51;;;;;;;1.20;1.10;;;13.10;98.00;;;;;;5032673;28;20462;-69
2022/01/04 12:55:18;;;;;;;1.20;1.10;;;13.10;98.00;;;;;;5032850;28;20947;-70
2022/01/04 12:57:45;;;;;;;1.43;1.37;;;13.10;98.00;;;;;;5041432;28;20482;-69
2022/01/04 13:00:15;;;;;;;1.20;1.00;;;13.10;98.00;;;;;;5049921;28;20510;-69
2022/01/04 13:02:43;;;;;;;1.20;1.00;;;13.10;98.00;;;;;;5040670;28;20960;-69